Saturday, November 18, 2017, 9:44 PM EST
Back to Local

KGED, Georgetown Sussex Co Airport

Location: Georgetown, DE, United States Lat: 38.683
Local Time: 9:44 PM EST ( 2:44 GMT) Lon: -75.367
Time Zone: US/Eastern Elev: 52 ft

Show me the last for .
Show Decoded

2017-11-18 20:54 METAR KGED 190154Z AUTO 21015G23KT 10SM CLR 16/10 A2959 RMK AO2 SLP018 T01610100
                 =
2017-11-18 19:54 METAR KGED 190054Z AUTO 19015G21KT 10SM CLR 16/09 A2960 RMK AO2 SLP022 T01560089
                 =
2017-11-18 18:54 METAR KGED 182354Z AUTO 19014KT 10SM CLR 15/08 A2964 RMK AO2 SLP036 T01500083
                 10178 20139 58018 =
2017-11-18 17:54 METAR KGED 182254Z AUTO 19013KT 10SM CLR 14/07 A2966 RMK AO2 SLP044 T01440067 =
2017-11-18 16:54 METAR KGED 182154Z AUTO 20012KT 10SM FEW090 14/05 A2968 RMK AO2 SLP050 T01440050
                 =
2017-11-18 15:54 METAR KGED 182054Z AUTO 22017G27KT 10SM CLR 16/01 A2969 RMK AO2 PK WND
                 20027/2049 SLP054 T01560011 56031 =
2017-11-18 14:54 METAR KGED 181954Z AUTO 22017G27KT 10SM CLR 17/M02 A2972 RMK AO2 PK WND
                 19027/1954 SLP062 T01671022 =
2017-11-18 13:54 METAR KGED 181854Z AUTO 21015G22KT 10SM CLR 18/01 A2974 RMK AO2 SLP069 T01780006
                 =
2017-11-18 12:54 METAR KGED 181754Z AUTO 20013KT 10SM CLR 16/03 A2978 RMK AO2 SLP085 T01560033
                 10156 20011 58055 =
2017-11-18 11:54 METAR KGED 181654Z AUTO 20015G20KT 10SM CLR 13/04 A2983 RMK AO2 PRESFR SLP103
                 T01330039 =
2017-11-18 10:54 METAR KGED 181554Z AUTO 21015G21KT 10SM CLR 12/04 A2990 RMK AO2 SLP124 T01220039
                 =
2017-11-18 09:54 METAR KGED 181454Z AUTO 21011KT 10SM CLR 10/04 A2994 RMK AO2 SLP140 T01000039
                 56024 =
2017-11-18 08:54 METAR KGED 181354Z AUTO 19009KT 10SM CLR 08/03 A2996 RMK AO2 SLP147 T00780033 =
2017-11-18 07:54 METAR KGED 181254Z AUTO 18006KT 10SM CLR 04/02 A2999 RMK AO2 SLP157 T00440017 =
2017-11-18 06:54 METAR KGED 181154Z AUTO 20003KT 10SM CLR 01/M01 A3002 RMK AO2 SLP164 T00111011
                 10017 21017 58010 =
2017-11-18 05:54 METAR KGED 181054Z AUTO 20004KT 10SM CLR 01/M02 A3003 RMK AO2 SLP170 T00061022 =
2017-11-18 04:54 METAR KGED 180954Z AUTO 00000KT 10SM CLR M01/M03 A3005 RMK AO2 SLP175 T10061028
                 =
2017-11-18 03:54 METAR KGED 180854Z AUTO 00000KT 10SM CLR 00/M03 A3005 RMK AO2 SLP175 T00001028
                 58017 =
2017-11-18 02:54 METAR KGED 180754Z AUTO 00000KT 10SM CLR 00/M02 A3007 RMK AO2 SLP183 T00001022 =
2017-11-18 01:54 METAR KGED 180654Z AUTO 00000KT 10SM CLR 01/M02 A3009 RMK AO2 SLP188 T00061017 =
2017-11-18 00:54 METAR KGED 180554Z AUTO 00000KT 10SM CLR M01/M02 A3010 RMK AO2 SLP192 T10061022
                 10050 21017 56014 =
2017-11-17 23:54 METAR KGED 180454Z AUTO 00000KT 10SM CLR M01/M03 A3010 RMK AO2 SLP192 T10061028
                 401111006 =
2017-11-17 22:54 METAR KGED 180354Z AUTO 00000KT 10SM CLR 01/M02 A3012 RMK AO2 SLP199 T00061022 =
2017-11-17 21:54 METAR KGED 180254Z AUTO 00000KT 10SM CLR 02/M01 A3014 RMK AO2 SLP205 T00171011
                 55006 =

Support USWX by starting your Amazon purchase here.